createdAt,value
2022-10-09T00:02:31.853Z,85.70
2022-10-09T00:05:01.255Z,85.62
2022-10-09T00:07:35.769Z,85.49
2022-10-09T00:10:05.890Z,85.44
2022-10-09T00:12:35.429Z,85.34
2022-10-09T00:15:10.689Z,85.26
2022-10-09T00:17:46.250Z,85.41
2022-10-09T00:20:15.369Z,85.39
2022-10-09T00:22:52.270Z,85.37
2022-10-09T00:25:24.389Z,85.27
2022-10-09T00:27:53.328Z,85.13
2022-10-09T00:30:33.131Z,85.20
2022-10-09T00:33:06.431Z,85.27
2022-10-09T00:35:44.674Z,85.36
2022-10-09T00:38:22.491Z,85.42
2022-10-09T00:41:03.209Z,85.42
2022-10-09T00:43:47.234Z,85.39
2022-10-09T00:46:34.730Z,85.52
2022-10-09T00:49:37.173Z,85.48
2022-10-09T00:52:12.780Z,85.55
2022-10-09T00:54:43.708Z,85.51
2022-10-09T00:57:17.478Z,85.44
2022-10-09T00:59:52.690Z,85.44
2022-10-09T01:02:21.447Z,85.53
2022-10-09T01:04:56.330Z,85.70
2022-10-09T01:07:46.270Z,85.86
2022-10-09T01:10:47.288Z,86.03
2022-10-09T01:14:18.293Z,85.81
2022-10-09T01:17:25.749Z,85.90
2022-10-09T01:20:27.275Z,85.92
2022-10-09T01:23:11.010Z,86.13
2022-10-09T01:26:34.530Z,86.08
2022-10-09T01:29:11.971Z,85.93
2022-10-09T01:31:48.998Z,86.10
2022-10-09T01:34:20.949Z,86.20
2022-10-09T01:37:01.087Z,86.40
2022-10-09T01:39:37.987Z,86.74
2022-10-09T01:42:08.128Z,86.73
2022-10-09T01:44:38.754Z,86.80
2022-10-09T01:47:15.329Z,86.72
2022-10-09T01:49:55.167Z,86.57
2022-10-09T01:52:56.730Z,86.64
2022-10-09T01:55:44.947Z,86.61
2022-10-09T01:58:59.015Z,86.82
2022-10-09T02:01:40.351Z,86.96
2022-10-09T02:04:19.489Z,87.01
2022-10-09T02:06:55.828Z,87.19
2022-10-09T02:09:56.334Z,87.14
2022-10-09T02:12:41.367Z,87.23
2022-10-09T02:15:12.729Z,87.49
2022-10-09T02:17:54.870Z,87.82
2022-10-09T02:20:40.348Z,87.86
2022-10-09T02:23:17.554Z,87.82
2022-10-09T02:25:47.693Z,87.84
2022-10-09T02:28:24.153Z,87.66
2022-10-09T02:31:25.578Z,87.59
2022-10-09T02:34:19.887Z,87.77
2022-10-09T02:36:53.227Z,87.88
2022-10-09T02:39:26.508Z,87.76
2022-10-09T02:41:55.168Z,87.62
2022-10-09T02:44:23.796Z,87.48
2022-10-09T02:46:53.230Z,87.56
2022-10-09T02:49:22.417Z,87.43
2022-10-09T02:51:51.099Z,87.52
2022-10-09T02:54:19.690Z,87.41
2022-10-09T02:56:52.730Z,87.39
2022-10-09T02:59:21.381Z,87.44
2022-10-09T03:01:50.311Z,87.34
2022-10-09T03:04:19.327Z,87.30
2022-10-09T03:06:52.970Z,87.31
2022-10-09T03:09:28.225Z,87.37
2022-10-09T03:12:00.035Z,87.42
2022-10-09T03:14:28.810Z,87.42
2022-10-09T03:17:05.828Z,87.39
2022-10-09T03:19:43.253Z,87.48
2022-10-09T03:22:18.707Z,87.31
2022-10-09T03:24:55.989Z,87.32
2022-10-09T03:27:31.568Z,87.29
2022-10-09T03:30:07.910Z,87.21
2022-10-09T03:32:43.738Z,87.04
2022-10-09T03:35:18.998Z,87.00
2022-10-09T03:37:52.111Z,87.00
2022-10-09T03:40:26.189Z,87.11
2022-10-09T03:42:55.090Z,87.17
2022-10-09T03:45:30.162Z,87.30
2022-10-09T03:48:02.508Z,87.40
2022-10-09T03:50:40.949Z,87.30
2022-10-09T03:53:16.976Z,87.13
2022-10-09T03:55:45.888Z,87.08
2022-10-09T03:58:14.829Z,87.05
2022-10-09T04:00:54.019Z,87.07
2022-10-09T04:03:32.269Z,87.18
2022-10-09T04:06:06.710Z,87.38
2022-10-09T04:08:39.309Z,87.46
2022-10-09T04:11:13.188Z,87.50
2022-10-09T04:13:41.949Z,87.68
2022-10-09T04:16:17.184Z,87.69
2022-10-09T04:18:54.169Z,87.71
2022-10-09T04:21:26.213Z,87.81
2022-10-09T04:23:55.109Z,87.99
2022-10-09T04:26:27.419Z,87.96
2022-10-09T04:29:02.213Z,87.99
2022-10-09T04:31:36.001Z,88.00
2022-10-09T04:34:06.331Z,88.11
2022-10-09T04:36:34.990Z,88.23
2022-10-09T04:39:09.936Z,88.29
2022-10-09T04:41:45.069Z,88.30
2022-10-09T04:44:20.053Z,88.48
2022-10-09T04:46:55.109Z,88.57
2022-10-09T04:49:28.989Z,88.59
2022-10-09T04:52:02.509Z,88.59
2022-10-09T04:54:31.269Z,88.67
2022-10-09T04:57:05.109Z,88.72
2022-10-09T04:59:33.815Z,88.79
2022-10-09T05:02:02.563Z,88.81
2022-10-09T05:04:31.408Z,88.79
2022-10-09T05:07:00.050Z,88.80
2022-10-09T05:09:28.689Z,88.78
2022-10-09T05:11:57.309Z,88.80
2022-10-09T05:14:25.998Z,88.84
2022-10-09T05:17:12.903Z,88.90
2022-10-09T05:19:43.029Z,88.90
2022-10-09T05:22:11.689Z,88.90
2022-10-09T05:24:40.589Z,88.93
2022-10-09T05:27:09.349Z,89.00
2022-10-09T05:29:38.029Z,89.15
2022-10-09T05:32:06.872Z,89.16
2022-10-09T05:34:35.912Z,89.03
2022-10-09T05:37:04.590Z,89.01
2022-10-09T05:39:36.629Z,88.98
2022-10-09T05:42:05.709Z,88.90
2022-10-09T05:44:34.428Z,88.88
2022-10-09T05:47:03.289Z,88.89
2022-10-09T05:49:31.950Z,88.99
2022-10-09T05:52:00.624Z,89.00
2022-10-09T05:54:29.549Z,88.95
2022-10-09T05:56:58.209Z,88.88
2022-10-09T05:59:26.953Z,88.79
2022-10-09T06:01:55.784Z,88.69
2022-10-09T06:04:25.751Z,88.70
2022-10-09T06:06:54.551Z,88.73
2022-10-09T06:09:25.789Z,88.62
2022-10-09T06:11:56.189Z,88.56
2022-10-09T06:14:25.436Z,88.36
2022-10-09T06:16:54.238Z,88.24
2022-10-09T06:19:23.409Z,88.09
2022-10-09T06:21:52.271Z,87.97
2022-10-09T06:24:29.061Z,87.84
2022-10-09T06:26:58.931Z,87.69
2022-10-09T06:29:27.830Z,87.49
2022-10-09T06:31:57.154Z,87.32
2022-10-09T06:34:25.752Z,87.18
2022-10-09T06:36:54.329Z,87.08
2022-10-09T06:42:42.577Z,87.13
2022-10-09T06:45:11.446Z,86.80
2022-10-09T06:47:39.926Z,86.56
2022-10-09T06:50:09.651Z,86.36
2022-10-09T06:52:38.067Z,86.20
2022-10-09T06:55:07.277Z,86.06
2022-10-09T06:57:35.806Z,85.91
2022-10-09T07:00:06.047Z,85.68
2022-10-09T07:02:34.986Z,85.51
2022-10-09T07:05:04.746Z,85.65
2022-10-09T07:07:33.309Z,85.18
2022-10-09T07:10:02.016Z,84.98
2022-10-09T07:12:30.488Z,84.86
2022-10-09T07:14:58.960Z,84.54
2022-10-09T07:17:28.476Z,84.34
2022-10-09T07:19:57.258Z,84.19
2022-10-09T07:22:27.154Z,84.14
2022-10-09T07:24:55.858Z,83.87
2022-10-09T07:27:24.556Z,83.93
2022-10-09T07:29:53.436Z,83.65
2022-10-09T07:32:22.156Z,83.39
2022-10-09T07:34:50.714Z,83.45
2022-10-09T07:37:19.397Z,83.24
2022-10-09T07:39:47.973Z,82.67
2022-10-09T07:42:19.156Z,82.26
2022-10-09T07:44:48.945Z,82.30
2022-10-09T07:47:17.516Z,82.20
2022-10-09T07:49:46.078Z,81.95
2022-10-09T07:52:14.594Z,81.75
2022-10-09T07:54:43.064Z,81.76
2022-10-09T07:57:11.647Z,81.56
2022-10-09T07:59:40.134Z,81.62
2022-10-09T08:02:10.006Z,81.60
2022-10-09T08:04:38.537Z,81.55
2022-10-09T08:07:07.006Z,81.33
2022-10-09T08:09:35.467Z,81.12
2022-10-09T08:12:04.893Z,80.76
2022-10-09T08:14:34.156Z,80.72
2022-10-09T08:17:02.884Z,80.64
2022-10-09T08:19:31.771Z,80.42
2022-10-09T08:22:03.479Z,80.13
2022-10-09T08:24:32.624Z,80.61
2022-10-09T08:27:01.410Z,80.29
2022-10-09T08:29:30.333Z,80.08
2022-10-09T08:31:58.890Z,79.49
2022-10-09T08:34:28.208Z,79.49
2022-10-09T08:36:56.790Z,79.72
2022-10-09T08:39:25.782Z,79.63
2022-10-09T08:41:57.971Z,79.03
2022-10-09T08:44:43.420Z,78.78
2022-10-09T08:47:40.479Z,78.31
2022-10-09T08:50:23.854Z,78.28
2022-10-09T08:53:06.321Z,78.31
2022-10-09T08:55:56.367Z,77.80
2022-10-09T08:58:37.780Z,77.87
2022-10-09T09:01:45.418Z,77.56
2022-10-09T09:04:55.020Z,77.50
2022-10-09T09:07:36.355Z,77.35
2022-10-09T09:10:35.553Z,77.41
2022-10-09T09:13:51.820Z,76.80
2022-10-09T09:16:39.770Z,76.15
2022-10-09T09:19:57.292Z,76.04
2022-10-09T09:22:28.371Z,75.39
2022-10-09T09:25:00.102Z,75.65
2022-10-09T09:27:34.389Z,76.02
2022-10-09T09:30:32.409Z,75.90
2022-10-09T09:34:09.381Z,75.36
2022-10-09T09:36:53.523Z,74.37
2022-10-09T09:40:23.819Z,74.72
2022-10-09T09:42:19.673Z,73.44
2022-10-09T09:45:13.342Z,73.28
2022-10-09T09:48:02.402Z,72.54
2022-10-09T09:50:59.655Z,73.12
2022-10-09T09:53:36.593Z,72.47
2022-10-09T09:56:06.402Z,71.41
2022-10-09T09:58:48.883Z,71.26
2022-10-09T10:01:27.017Z,72.22
2022-10-09T10:03:59.786Z,71.85
2022-10-09T10:06:42.063Z,71.75
2022-10-09T10:09:18.501Z,70.45
2022-10-09T10:11:55.910Z,70.79
2022-10-09T10:14:25.517Z,69.64
2022-10-09T10:16:59.632Z,69.36
2022-10-09T10:19:35.920Z,68.99
2022-10-09T10:22:22.320Z,68.45
2022-10-09T10:24:58.070Z,68.71
2022-10-09T10:27:40.954Z,68.20
2022-10-09T10:30:17.108Z,67.67
2022-10-09T10:33:20.045Z,67.20
2022-10-09T10:35:54.330Z,67.34
2022-10-09T10:38:30.621Z,66.52
2022-10-09T10:41:29.875Z,66.15
2022-10-09T10:44:33.901Z,65.86
2022-10-09T10:47:11.954Z,65.61
2022-10-09T10:49:41.656Z,66.11
2022-10-09T10:53:02.414Z,65.20
2022-10-09T10:55:47.656Z,64.69
2022-10-09T10:58:56.555Z,63.95
2022-10-09T11:01:52.816Z,62.59
2022-10-09T11:05:05.717Z,63.07
2022-10-09T11:07:47.377Z,63.25
2022-10-09T11:10:43.955Z,63.43
2022-10-09T11:13:33.294Z,62.25
2022-10-09T11:16:28.508Z,60.51
2022-10-09T11:19:26.615Z,60.56
2022-10-09T11:22:04.820Z,59.75
2022-10-09T11:25:05.861Z,61.31
2022-10-09T11:28:18.442Z,62.23
2022-10-09T11:30:54.022Z,61.65
2022-10-09T11:33:52.095Z,59.53
2022-10-09T11:36:41.232Z,59.15
2022-10-09T11:39:18.799Z,58.65
2022-10-09T11:41:54.921Z,59.71
2022-10-09T11:45:04.436Z,61.28
2022-10-09T11:48:00.188Z,60.02
2022-10-09T11:50:53.028Z,59.81
2022-10-09T11:53:26.855Z,59.54
2022-10-09T11:56:30.976Z,59.02
2022-10-09T11:59:07.118Z,60.28
2022-10-09T12:01:46.966Z,58.78
2022-10-09T12:04:23.915Z,58.49
2022-10-09T12:07:10.255Z,59.49
2022-10-09T12:09:42.341Z,59.91
2022-10-09T12:12:17.859Z,60.75
2022-10-09T12:14:51.008Z,59.00
2022-10-09T12:17:23.142Z,59.11
2022-10-09T12:20:17.201Z,58.43
2022-10-09T12:23:21.360Z,58.50
2022-10-09T12:25:46.862Z,57.76
2022-10-09T12:28:57.671Z,58.49
2022-10-09T12:31:33.636Z,58.99
2022-10-09T12:34:37.068Z,58.08
2022-10-09T12:37:16.974Z,57.72
2022-10-09T12:39:50.066Z,58.21
2022-10-09T12:45:04.920Z,59.52
2022-10-09T12:47:36.140Z,56.87
2022-10-09T12:50:24.681Z,57.16
2022-10-09T12:53:03.015Z,57.37
2022-10-09T12:55:43.510Z,57.69
2022-10-09T12:58:43.972Z,57.83
2022-10-09T13:01:16.380Z,57.23
2022-10-09T13:03:58.214Z,57.44
2022-10-09T13:06:53.362Z,58.28
2022-10-09T13:09:40.109Z,57.20
2022-10-09T13:12:27.216Z,56.95
2022-10-09T13:15:01.366Z,56.28
2022-10-09T13:17:35.339Z,56.29
2022-10-09T13:20:31.554Z,55.52
2022-10-09T13:23:04.093Z,55.37
2022-10-09T13:25:40.926Z,55.60
2022-10-09T13:28:19.779Z,55.79
2022-10-09T13:30:48.792Z,56.71
2022-10-09T13:33:18.043Z,56.14
2022-10-09T13:35:47.525Z,54.94
2022-10-09T13:38:20.727Z,54.85
2022-10-09T13:40:49.625Z,54.56
2022-10-09T13:43:26.700Z,54.60
2022-10-09T13:45:55.958Z,55.13
2022-10-09T13:48:26.173Z,55.65
2022-10-09T13:50:54.954Z,54.99
2022-10-09T13:53:23.693Z,54.46
2022-10-09T13:56:00.055Z,54.01
2022-10-09T13:58:30.292Z,54.09
2022-10-09T14:00:59.186Z,54.01
2022-10-09T14:03:28.269Z,54.10
2022-10-09T14:06:01.639Z,54.30
2022-10-09T14:08:31.313Z,54.11
2022-10-09T14:11:01.484Z,54.58
2022-10-09T14:13:30.777Z,54.93
2022-10-09T14:15:59.490Z,54.29
2022-10-09T14:18:28.331Z,54.11
2022-10-09T14:20:56.964Z,53.92
2022-10-09T14:23:26.063Z,54.07
2022-10-09T14:25:54.959Z,54.60
2022-10-09T14:28:23.706Z,54.66
2022-10-09T14:30:52.633Z,54.82
2022-10-09T14:33:21.532Z,54.88
2022-10-09T14:35:50.411Z,54.84
2022-10-09T14:38:19.093Z,54.96
2022-10-09T14:40:48.394Z,55.05
2022-10-09T14:43:17.205Z,55.49
2022-10-09T14:45:46.084Z,54.74
2022-10-09T14:48:14.800Z,55.15
2022-10-09T14:50:43.772Z,54.87
2022-10-09T14:53:12.651Z,55.27
2022-10-09T14:55:41.453Z,55.82
2022-10-09T14:58:10.229Z,56.05
2022-10-09T15:00:45.269Z,55.79
2022-10-09T15:03:14.149Z,56.05
2022-10-09T15:05:42.952Z,57.06
2022-10-09T15:08:11.849Z,57.26
2022-10-09T15:10:40.729Z,57.67
2022-10-09T15:13:10.249Z,58.73
2022-10-09T15:15:38.930Z,58.80
2022-10-09T15:18:07.600Z,59.82
2022-10-09T15:20:36.601Z,60.22
2022-10-09T15:25:33.669Z,60.45
2022-10-09T15:28:03.060Z,60.43
2022-10-09T15:30:32.027Z,60.29
2022-10-09T15:33:03.826Z,61.68
2022-10-09T15:35:33.328Z,63.04
2022-10-09T15:38:02.099Z,64.08
2022-10-09T15:40:31.125Z,64.53
2022-10-09T15:43:00.103Z,64.72
2022-10-09T15:45:28.995Z,64.84
2022-10-09T15:47:58.296Z,65.25
2022-10-09T15:50:27.359Z,65.56
2022-10-09T15:52:57.783Z,65.92
2022-10-09T15:55:26.505Z,66.29
2022-10-09T15:57:55.705Z,66.20
2022-10-09T16:00:24.604Z,67.20
2022-10-09T16:02:53.321Z,68.02
2022-10-09T16:05:21.868Z,67.79
2022-10-09T16:07:50.666Z,68.50
2022-10-09T16:10:19.825Z,69.79
2022-10-09T16:12:48.771Z,70.43
2022-10-09T16:15:18.201Z,70.62
2022-10-09T16:17:48.988Z,70.41
2022-10-09T16:20:19.266Z,70.53
2022-10-09T16:22:48.387Z,70.69
2022-10-09T16:25:17.814Z,70.99
2022-10-09T16:27:46.718Z,71.29
2022-10-09T16:30:15.684Z,71.67
2022-10-09T16:32:44.582Z,72.16
2022-10-09T16:35:13.678Z,72.86
2022-10-09T16:37:42.478Z,73.17
2022-10-09T16:40:12.197Z,73.45
2022-10-09T16:42:40.977Z,73.77
2022-10-09T16:45:10.878Z,74.15
2022-10-09T16:47:41.799Z,74.39
2022-10-09T16:50:12.991Z,74.89
2022-10-09T16:52:42.065Z,75.13
2022-10-09T16:55:11.284Z,75.28
2022-10-09T16:57:40.052Z,75.64
2022-10-09T17:00:10.002Z,76.28
2022-10-09T17:02:39.383Z,76.61
2022-10-09T17:05:08.820Z,76.86
2022-10-09T17:07:37.658Z,77.28
2022-10-09T17:10:07.578Z,77.49
2022-10-09T17:12:37.598Z,77.24
2022-10-09T17:15:07.327Z,77.62
2022-10-09T17:17:36.100Z,77.60
2022-10-09T17:20:05.915Z,77.91
2022-10-09T17:22:34.699Z,77.28
2022-10-09T17:25:03.735Z,76.99
2022-10-09T17:27:32.682Z,76.71
2022-10-09T17:30:01.479Z,76.75
2022-10-09T17:32:30.471Z,76.37
2022-10-09T17:34:59.253Z,76.50
2022-10-09T17:37:28.359Z,76.25
2022-10-09T17:39:57.360Z,76.40
2022-10-09T17:42:26.254Z,76.02
2022-10-09T17:44:55.030Z,76.25
2022-10-09T17:47:23.822Z,76.21
2022-10-09T17:49:53.345Z,76.19
2022-10-09T17:52:22.317Z,75.94
2022-10-09T17:54:51.218Z,75.83
2022-10-09T17:57:20.556Z,75.85
2022-10-09T17:59:49.417Z,76.14
2022-10-09T18:02:18.197Z,76.02
2022-10-09T18:04:47.535Z,76.07
2022-10-09T18:07:19.897Z,76.10
2022-10-09T18:09:51.796Z,76.21
2022-10-09T18:12:21.256Z,76.29
2022-10-09T18:14:50.781Z,76.50
2022-10-09T18:17:20.035Z,76.86
2022-10-09T18:19:48.936Z,77.17
2022-10-09T18:22:18.505Z,77.23
2022-10-09T18:24:47.298Z,77.31
2022-10-09T18:27:16.116Z,77.51
2022-10-09T18:29:45.216Z,77.62
2022-10-09T18:32:14.218Z,77.71
2022-10-09T18:34:46.355Z,78.00
2022-10-09T18:37:15.865Z,78.46
2022-10-09T18:39:44.680Z,78.77
2022-10-09T18:42:13.658Z,78.93
2022-10-09T18:44:43.336Z,79.34
2022-10-09T18:47:18.198Z,79.46
2022-10-09T18:49:52.936Z,79.61
2022-10-09T18:52:22.136Z,79.81
2022-10-09T18:54:54.570Z,79.88
2022-10-09T18:57:26.398Z,80.27
2022-10-09T18:59:56.376Z,80.38
2022-10-09T19:02:27.507Z,80.41
2022-10-09T19:04:57.196Z,80.25
2022-10-09T19:07:26.138Z,80.35
2022-10-09T19:09:57.287Z,80.39
2022-10-09T19:12:27.337Z,80.79
2022-10-09T19:14:56.496Z,81.21
2022-10-09T19:17:25.797Z,81.75
2022-10-09T19:19:55.296Z,82.11
2022-10-09T19:22:24.287Z,82.06
2022-10-09T19:24:52.976Z,82.18
2022-10-09T19:27:26.305Z,82.15
2022-10-09T19:29:55.583Z,82.15
2022-10-09T19:32:24.679Z,81.99
2022-10-09T19:34:53.756Z,81.92
2022-10-09T19:37:27.407Z,81.66
2022-10-09T19:39:58.618Z,81.78
2022-10-09T19:42:27.616Z,81.71
2022-10-09T19:44:56.915Z,82.07
2022-10-09T19:47:25.777Z,82.03
2022-10-09T19:49:54.797Z,82.04
2022-10-09T19:52:23.895Z,82.49
2022-10-09T19:54:53.397Z,82.70
2022-10-09T19:57:22.297Z,82.98
2022-10-09T19:59:51.177Z,83.35
2022-10-09T20:02:20.176Z,83.65
2022-10-09T20:04:49.897Z,83.58
2022-10-09T20:07:18.677Z,83.89
2022-10-09T20:09:47.657Z,84.01
2022-10-09T20:12:16.456Z,83.95
2022-10-09T20:14:46.119Z,84.30
2022-10-09T20:17:15.259Z,84.29
2022-10-09T20:19:47.315Z,84.34
2022-10-09T20:22:16.115Z,84.59
2022-10-09T20:24:45.212Z,84.46
2022-10-09T20:27:14.316Z,84.46
2022-10-09T20:29:43.776Z,84.65
2022-10-09T20:32:13.076Z,84.52
2022-10-09T20:34:42.216Z,84.45
2022-10-09T20:37:10.998Z,84.48
2022-10-09T20:39:39.797Z,84.49
2022-10-09T20:42:09.237Z,84.50
2022-10-09T20:44:38.304Z,84.16
2022-10-09T20:47:07.276Z,84.14
2022-10-09T20:49:36.561Z,84.01
2022-10-09T20:52:05.676Z,84.13
2022-10-09T20:54:34.677Z,84.34
2022-10-09T20:57:03.775Z,84.15
2022-10-09T20:59:32.736Z,84.31
2022-10-09T21:02:01.886Z,84.69
2022-10-09T21:04:32.058Z,84.72
2022-10-09T21:07:00.882Z,84.86
2022-10-09T21:09:33.154Z,84.72
2022-10-09T21:12:03.059Z,84.61
2022-10-09T21:14:31.936Z,84.68
2022-10-09T21:17:00.936Z,84.72
2022-10-09T21:19:29.944Z,84.85
2022-10-09T21:21:59.037Z,84.90
2022-10-09T21:24:28.238Z,84.87
2022-10-09T21:26:57.316Z,85.07
2022-10-09T21:29:27.616Z,85.16
2022-10-09T21:31:56.777Z,85.33
2022-10-09T21:34:25.736Z,85.30
2022-10-09T21:37:19.745Z,85.09
2022-10-09T21:39:45.016Z,85.32
2022-10-09T21:42:13.817Z,85.42
2022-10-09T21:44:42.598Z,85.62
2022-10-09T21:47:21.117Z,85.53
2022-10-09T21:49:49.800Z,85.60
2022-10-09T21:52:19.416Z,85.57
2022-10-09T21:54:48.415Z,85.73
2022-10-09T21:57:17.516Z,85.61
2022-10-09T21:59:56.280Z,85.61
2022-10-09T22:02:37.311Z,85.54
2022-10-09T22:05:20.817Z,85.54
2022-10-09T22:07:54.336Z,85.54
2022-10-09T22:10:30.225Z,85.74
2022-10-09T22:13:03.596Z,85.85
2022-10-09T22:15:47.651Z,85.78
2022-10-09T22:18:21.736Z,85.74
2022-10-09T22:20:56.476Z,85.77
2022-10-09T22:23:29.766Z,85.92
2022-10-09T22:26:12.197Z,85.79
2022-10-09T22:28:53.497Z,85.60
2022-10-09T22:31:49.655Z,85.84
2022-10-09T22:34:26.881Z,85.96
2022-10-09T22:36:59.804Z,86.01
2022-10-09T22:39:40.417Z,86.18
2022-10-09T22:42:13.538Z,86.35
2022-10-09T22:44:48.636Z,86.41
2022-10-09T22:47:23.437Z,86.23
2022-10-09T22:50:00.376Z,86.01
2022-10-09T22:52:32.140Z,86.02
2022-10-09T22:55:08.079Z,86.32
2022-10-09T22:57:48.676Z,86.78
2022-10-09T23:00:27.396Z,86.82
2022-10-09T23:05:48.117Z,86.74
2022-10-09T23:08:22.778Z,86.68
2022-10-09T23:11:01.657Z,86.69
2022-10-09T23:13:40.346Z,86.48
2022-10-09T23:16:27.645Z,86.32
2022-10-09T23:19:21.029Z,86.45
2022-10-09T23:21:50.236Z,86.37
2022-10-09T23:24:49.316Z,86.31
2022-10-09T23:27:21.992Z,86.42
2022-10-09T23:29:56.326Z,86.26
2022-10-09T23:32:29.906Z,86.24
2022-10-09T23:35:00.426Z,86.25
2022-10-09T23:37:33.436Z,86.23
2022-10-09T23:40:07.675Z,86.20
2022-10-09T23:42:42.217Z,86.20
2022-10-09T23:45:16.367Z,86.41
2022-10-09T23:47:49.830Z,86.32
2022-10-09T23:50:23.357Z,86.37
2022-10-09T23:53:03.117Z,86.70
2022-10-09T23:55:50.799Z,86.44
2022-10-09T23:58:25.727Z,86.46
